Terminal Aerodrome Forecast
Issued by NWS Sterling, VA

Current Version | Previous Version | Graphics & Text | Print | Product List | Glossary On
Versions: 1 2 3 4 5 6 7 8 9 10 11 12 13 14 15 16 17 18 19 20 21 22 23 24 25 26 27 28 29 30 31 32
000
FTUS41 KLWX 250531
TAFIAD
TAF
KIAD 250531Z 2506/2612 00000KT P6SM SCT040
     FM251000 00000KT P6SM BKN040
     FM251500 16006KT P6SM OVC040
     FM251800 17009G18KT P6SM SCT025 OVC035
     FM252200 18004KT P6SM BKN020
     FM260300 19006KT P6SM SCT010 OVC020
     FM260700 18006KT P6SM BKN010 WS020/21040KT=

USA.gov is the U.S. government's official web portal to all federal, state and local government web resources and services.